sensor_id;sensor_type;location;lat;lon;timestamp;temperature;humidity
6054;DHT22;3055;50.886;14.814;2022-09-12T00:01:15;15.20;99.90
6054;DHT22;3055;50.886;14.814;2022-09-12T00:03:44;15.20;99.90
6054;DHT22;3055;50.886;14.814;2022-09-12T00:06:15;15.20;99.90
6054;DHT22;3055;50.886;14.814;2022-09-12T00:08:42;15.20;99.90
6054;DHT22;3055;50.886;14.814;2022-09-12T00:11:10;15.20;99.90
6054;DHT22;3055;50.886;14.814;2022-09-12T00:13:38;15.20;99.90
6054;DHT22;3055;50.886;14.814;2022-09-12T00:16:06;15.10;99.90
6054;DHT22;3055;50.886;14.814;2022-09-12T00:18:34;15.10;99.90
6054;DHT22;3055;50.886;14.814;2022-09-12T00:21:03;15.10;99.90
6054;DHT22;3055;50.886;14.814;2022-09-12T00:23:30;15.20;99.90
6054;DHT22;3055;50.886;14.814;2022-09-12T00:25:58;15.20;99.90
6054;DHT22;3055;50.886;14.814;2022-09-12T00:28:25;15.20;99.90
6054;DHT22;3055;50.886;14.814;2022-09-12T00:30:52;15.20;99.90
6054;DHT22;3055;50.886;14.814;2022-09-12T00:33:19;15.10;99.90
6054;DHT22;3055;50.886;14.814;2022-09-12T00:35:49;15.10;99.90
6054;DHT22;3055;50.886;14.814;2022-09-12T00:38:19;15.00;99.90
6054;DHT22;3055;50.886;14.814;2022-09-12T00:40:46;15.10;99.90
6054;DHT22;3055;50.886;14.814;2022-09-12T00:43:14;15.00;99.90
6054;DHT22;3055;50.886;14.814;2022-09-12T00:46:03;14.90;99.90
6054;DHT22;3055;50.886;14.814;2022-09-12T00:48:34;14.90;99.90
6054;DHT22;3055;50.886;14.814;2022-09-12T00:51:04;14.90;99.90
6054;DHT22;3055;50.886;14.814;2022-09-12T00:53:31;14.90;99.90
6054;DHT22;3055;50.886;14.814;2022-09-12T00:55:58;15.00;99.90
6054;DHT22;3055;50.886;14.814;2022-09-12T00:58:27;15.00;99.90
6054;DHT22;3055;50.886;14.814;2022-09-12T01:00:56;15.00;99.90
6054;DHT22;3055;50.886;14.814;2022-09-12T01:03:23;15.00;99.90
6054;DHT22;3055;50.886;14.814;2022-09-12T01:05:57;14.90;99.90
6054;DHT22;3055;50.886;14.814;2022-09-12T01:08:28;14.90;99.90
6054;DHT22;3055;50.886;14.814;2022-09-12T01:10:55;14.90;99.90
6054;DHT22;3055;50.886;14.814;2022-09-12T01:13:23;14.90;99.90
6054;DHT22;3055;50.886;14.814;2022-09-12T01:15:50;14.90;99.90
6054;DHT22;3055;50.886;14.814;2022-09-12T01:18:22;14.90;99.90
6054;DHT22;3055;50.886;14.814;2022-09-12T01:21:08;15.00;99.90
6054;DHT22;3055;50.886;14.814;2022-09-12T01:24:00;14.90;99.90
6054;DHT22;3055;50.886;14.814;2022-09-12T01:32:54;15.10;99.90
6054;DHT22;3055;50.886;14.814;2022-09-12T01:35:32;15.10;99.90
6054;DHT22;3055;50.886;14.814;2022-09-12T01:38:09;15.00;99.90
6054;DHT22;3055;50.886;14.814;2022-09-12T01:40:43;15.00;99.90
6054;DHT22;3055;50.886;14.814;2022-09-12T01:43:17;15.10;99.90
6054;DHT22;3055;50.886;14.814;2022-09-12T01:45:46;15.10;99.90
6054;DHT22;3055;50.886;14.814;2022-09-12T01:48:20;15.10;99.90
6054;DHT22;3055;50.886;14.814;2022-09-12T01:50:51;15.20;99.90
6054;DHT22;3055;50.886;14.814;2022-09-12T01:53:23;15.20;99.90
6054;DHT22;3055;50.886;14.814;2022-09-12T01:55:57;15.20;99.90
6054;DHT22;3055;50.886;14.814;2022-09-12T01:58:29;15.20;99.90
6054;DHT22;3055;50.886;14.814;2022-09-12T02:01:02;15.20;99.90
6054;DHT22;3055;50.886;14.814;2022-09-12T02:03:33;15.20;99.90
6054;DHT22;3055;50.886;14.814;2022-09-12T02:06:07;15.30;99.90
6054;DHT22;3055;50.886;14.814;2022-09-12T02:08:39;15.20;99.90
6054;DHT22;3055;50.886;14.814;2022-09-12T02:11:10;15.20;99.90
6054;DHT22;3055;50.886;14.814;2022-09-12T02:13:40;15.30;99.90
6054;DHT22;3055;50.886;14.814;2022-09-12T02:16:10;15.20;99.90
6054;DHT22;3055;50.886;14.814;2022-09-12T02:18:43;15.20;99.90
6054;DHT22;3055;50.886;14.814;2022-09-12T02:21:11;15.10;99.90
6054;DHT22;3055;50.886;14.814;2022-09-12T02:23:42;15.10;99.90
6054;DHT22;3055;50.886;14.814;2022-09-12T02:26:22;15.00;99.90
6054;DHT22;3055;50.886;14.814;2022-09-12T02:28:50;14.90;99.90
6054;DHT22;3055;50.886;14.814;2022-09-12T02:31:22;15.00;99.90
6054;DHT22;3055;50.886;14.814;2022-09-12T02:34:00;14.90;99.90
6054;DHT22;3055;50.886;14.814;2022-09-12T02:36:37;14.90;99.90
6054;DHT22;3055;50.886;14.814;2022-09-12T02:39:08;14.90;99.90
6054;DHT22;3055;50.886;14.814;2022-09-12T02:41:35;14.90;99.90
6054;DHT22;3055;50.886;14.814;2022-09-12T02:44:03;15.00;99.90
6054;DHT22;3055;50.886;14.814;2022-09-12T02:46:35;14.90;99.90
6054;DHT22;3055;50.886;14.814;2022-09-12T02:49:03;14.90;99.90
6054;DHT22;3055;50.886;14.814;2022-09-12T02:51:30;14.90;99.90
6054;DHT22;3055;50.886;14.814;2022-09-12T02:53:58;14.90;99.90
6054;DHT22;3055;50.886;14.814;2022-09-12T02:56:28;14.90;99.90
6054;DHT22;3055;50.886;14.814;2022-09-12T02:59:00;15.00;99.90
6054;DHT22;3055;50.886;14.814;2022-09-12T03:01:39;15.00;99.90
6054;DHT22;3055;50.886;14.814;2022-09-12T03:04:26;14.90;99.90
6054;DHT22;3055;50.886;14.814;2022-09-12T03:07:07;14.90;99.90
6054;DHT22;3055;50.886;14.814;2022-09-12T03:09:44;14.90;99.90
6054;DHT22;3055;50.886;14.814;2022-09-12T03:12:21;14.80;99.90
6054;DHT22;3055;50.886;14.814;2022-09-12T03:15:01;14.70;99.90
6054;DHT22;3055;50.886;14.814;2022-09-12T03:17:41;14.70;99.90
6054;DHT22;3055;50.886;14.814;2022-09-12T03:20:13;14.70;99.90
6054;DHT22;3055;50.886;14.814;2022-09-12T03:22:48;14.60;99.90
6054;DHT22;3055;50.886;14.814;2022-09-12T03:25:21;14.50;99.90
6054;DHT22;3055;50.886;14.814;2022-09-12T03:27:55;14.50;99.90
6054;DHT22;3055;50.886;14.814;2022-09-12T03:30:24;14.50;99.90
6054;DHT22;3055;50.886;14.814;2022-09-12T03:32:53;14.60;99.90
6054;DHT22;3055;50.886;14.814;2022-09-12T03:35:23;14.60;99.90
6054;DHT22;3055;50.886;14.814;2022-09-12T03:37:51;14.60;99.90
6054;DHT22;3055;50.886;14.814;2022-09-12T03:40:18;14.50;99.90
6054;DHT22;3055;50.886;14.814;2022-09-12T03:42:45;14.50;99.90
6054;DHT22;3055;50.886;14.814;2022-09-12T03:45:12;14.60;99.90
6054;DHT22;3055;50.886;14.814;2022-09-12T03:47:40;14.60;99.90
6054;DHT22;3055;50.886;14.814;2022-09-12T03:50:08;14.50;99.90
6054;DHT22;3055;50.886;14.814;2022-09-12T03:52:36;14.50;99.90
6054;DHT22;3055;50.886;14.814;2022-09-12T03:55:04;14.50;99.90
6054;DHT22;3055;50.886;14.814;2022-09-12T03:57:31;14.50;99.90
6054;DHT22;3055;50.886;14.814;2022-09-12T03:59:58;14.60;99.90
6054;DHT22;3055;50.886;14.814;2022-09-12T04:02:26;14.70;99.90
6054;DHT22;3055;50.886;14.814;2022-09-12T04:04:53;14.60;99.90
6054;DHT22;3055;50.886;14.814;2022-09-12T04:07:20;14.60;99.90
6054;DHT22;3055;50.886;14.814;2022-09-12T04:09:48;14.60;99.90
6054;DHT22;3055;50.886;14.814;2022-09-12T04:12:16;14.50;99.90
6054;DHT22;3055;50.886;14.814;2022-09-12T04:14:42;14.50;99.90
6054;DHT22;3055;50.886;14.814;2022-09-12T04:17:10;14.50;99.90
6054;DHT22;3055;50.886;14.814;2022-09-12T04:19:37;14.40;99.90
6054;DHT22;3055;50.886;14.814;2022-09-12T04:22:04;14.40;99.90
6054;DHT22;3055;50.886;14.814;2022-09-12T04:24:31;14.30;99.90
6054;DHT22;3055;50.886;14.814;2022-09-12T04:26:59;14.30;99.90
6054;DHT22;3055;50.886;14.814;2022-09-12T04:29:26;14.20;99.90
6054;DHT22;3055;50.886;14.814;2022-09-12T04:31:54;14.20;99.90
6054;DHT22;3055;50.886;14.814;2022-09-12T04:34:20;14.20;99.90
6054;DHT22;3055;50.886;14.814;2022-09-12T04:36:48;14.10;99.90
6054;DHT22;3055;50.886;14.814;2022-09-12T04:39:14;14.00;99.90
6054;DHT22;3055;50.886;14.814;2022-09-12T04:41:42;14.00;99.90
6054;DHT22;3055;50.886;14.814;2022-09-12T04:44:12;13.90;99.90
6054;DHT22;3055;50.886;14.814;2022-09-12T04:46:41;13.80;99.90
6054;DHT22;3055;50.886;14.814;2022-09-12T04:49:09;13.80;99.90
6054;DHT22;3055;50.886;14.814;2022-09-12T04:51:37;13.80;99.90
6054;DHT22;3055;50.886;14.814;2022-09-12T04:54:05;13.90;99.90
6054;DHT22;3055;50.886;14.814;2022-09-12T04:56:36;13.90;99.90
6054;DHT22;3055;50.886;14.814;2022-09-12T04:59:04;13.90;99.90
6054;DHT22;3055;50.886;14.814;2022-09-12T05:01:32;14.00;99.90
6054;DHT22;3055;50.886;14.814;2022-09-12T05:04:00;14.10;99.90
6054;DHT22;3055;50.886;14.814;2022-09-12T05:06:29;14.30;99.90
6054;DHT22;3055;50.886;14.814;2022-09-12T05:08:57;14.40;99.90
6054;DHT22;3055;50.886;14.814;2022-09-12T05:11:27;14.40;99.90
6054;DHT22;3055;50.886;14.814;2022-09-12T05:13:55;14.40;99.90
6054;DHT22;3055;50.886;14.814;2022-09-12T05:16:23;14.50;99.90
6054;DHT22;3055;50.886;14.814;2022-09-12T05:18:52;14.60;99.90
6054;DHT22;3055;50.886;14.814;2022-09-12T05:21:20;14.60;99.90
6054;DHT22;3055;50.886;14.814;2022-09-12T05:23:50;14.60;99.90
6054;DHT22;3055;50.886;14.814;2022-09-12T05:26:17;14.80;99.90
6054;DHT22;3055;50.886;14.814;2022-09-12T05:28:46;14.80;99.90
6054;DHT22;3055;50.886;14.814;2022-09-12T05:31:15;14.70;99.90
6054;DHT22;3055;50.886;14.814;2022-09-12T05:33:44;14.70;99.90
6054;DHT22;3055;50.886;14.814;2022-09-12T05:36:14;14.70;99.90
6054;DHT22;3055;50.886;14.814;2022-09-12T05:38:42;14.80;99.90
6054;DHT22;3055;50.886;14.814;2022-09-12T05:41:10;14.90;99.90
6054;DHT22;3055;50.886;14.814;2022-09-12T05:43:39;15.00;99.90
6054;DHT22;3055;50.886;14.814;2022-09-12T05:46:10;15.10;99.90
6054;DHT22;3055;50.886;14.814;2022-09-12T05:48:38;15.20;99.90
6054;DHT22;3055;50.886;14.814;2022-09-12T05:51:07;15.30;99.90
6054;DHT22;3055;50.886;14.814;2022-09-12T05:53:37;15.40;99.90
6054;DHT22;3055;50.886;14.814;2022-09-12T05:56:06;15.40;99.90
6054;DHT22;3055;50.886;14.814;2022-09-12T05:58:33;15.50;99.90
6054;DHT22;3055;50.886;14.814;2022-09-12T06:01:02;15.50;99.90
6054;DHT22;3055;50.886;14.814;2022-09-12T06:03:30;15.60;99.90
6054;DHT22;3055;50.886;14.814;2022-09-12T06:06:00;15.60;99.90
6054;DHT22;3055;50.886;14.814;2022-09-12T06:08:27;15.70;99.90
6054;DHT22;3055;50.886;14.814;2022-09-12T06:10:59;15.70;99.90
6054;DHT22;3055;50.886;14.814;2022-09-12T06:13:26;15.80;99.90
6054;DHT22;3055;50.886;14.814;2022-09-12T06:15:53;15.80;99.90
6054;DHT22;3055;50.886;14.814;2022-09-12T06:18:20;15.90;99.90
6054;DHT22;3055;50.886;14.814;2022-09-12T06:20:47;16.00;99.90
6054;DHT22;3055;50.886;14.814;2022-09-12T06:23:14;16.00;99.90
6054;DHT22;3055;50.886;14.814;2022-09-12T06:25:45;16.00;99.90
6054;DHT22;3055;50.886;14.814;2022-09-12T06:28:15;16.10;99.90
6054;DHT22;3055;50.886;14.814;2022-09-12T06:30:42;16.20;99.90
6054;DHT22;3055;50.886;14.814;2022-09-12T06:33:09;16.40;92.40
6054;DHT22;3055;50.886;14.814;2022-09-12T06:35:36;16.50;88.60
6054;DHT22;3055;50.886;14.814;2022-09-12T06:38:03;16.70;47.30
6054;DHT22;3055;50.886;14.814;2022-09-12T06:40:31;16.80;20.30
6054;DHT22;3055;50.886;14.814;2022-09-12T06:42:58;16.90;1.00
6054;DHT22;3055;50.886;14.814;2022-09-12T06:45:26;17.00;10.80
6054;DHT22;3055;50.886;14.814;2022-09-12T06:47:54;17.30;1.00
6054;DHT22;3055;50.886;14.814;2022-09-12T06:50:21;17.60;1.00
6054;DHT22;3055;50.886;14.814;2022-09-12T06:52:48;17.90;1.00
6054;DHT22;3055;50.886;14.814;2022-09-12T06:55:16;18.10;1.00
6054;DHT22;3055;50.886;14.814;2022-09-12T06:57:43;18.20;1.00
6054;DHT22;3055;50.886;14.814;2022-09-12T07:00:11;18.30;1.00
6054;DHT22;3055;50.886;14.814;2022-09-12T07:02:39;18.30;1.00
6054;DHT22;3055;50.886;14.814;2022-09-12T07:05:06;18.10;1.00
6054;DHT22;3055;50.886;14.814;2022-09-12T07:07:35;18.00;1.00
6054;DHT22;3055;50.886;14.814;2022-09-12T07:10:03;18.00;1.00
6054;DHT22;3055;50.886;14.814;2022-09-12T07:12:31;18.00;1.00
6054;DHT22;3055;50.886;14.814;2022-09-12T07:14:58;17.90;1.00
6054;DHT22;3055;50.886;14.814;2022-09-12T07:17:25;17.90;1.00
6054;DHT22;3055;50.886;14.814;2022-09-12T07:19:53;17.80;1.00
6054;DHT22;3055;50.886;14.814;2022-09-12T07:22:20;17.80;1.00
6054;DHT22;3055;50.886;14.814;2022-09-12T07:24:47;17.80;1.00
6054;DHT22;3055;50.886;14.814;2022-09-12T07:27:15;17.90;1.00
6054;DHT22;3055;50.886;14.814;2022-09-12T07:29:41;18.00;99.90
6054;DHT22;3055;50.886;14.814;2022-09-12T07:32:08;18.00;99.90
6054;DHT22;3055;50.886;14.814;2022-09-12T07:34:36;18.00;1.00
6054;DHT22;3055;50.886;14.814;2022-09-12T07:37:04;18.20;99.90
6054;DHT22;3055;50.886;14.814;2022-09-12T07:39:31;18.40;99.90
6054;DHT22;3055;50.886;14.814;2022-09-12T07:41:58;18.60;3.30
6054;DHT22;3055;50.886;14.814;2022-09-12T07:44:26;18.60;99.90
6054;DHT22;3055;50.886;14.814;2022-09-12T07:46:54;18.70;99.90
6054;DHT22;3055;50.886;14.814;2022-09-12T07:49:20;18.80;1.00
6054;DHT22;3055;50.886;14.814;2022-09-12T07:51:47;18.70;99.90
6054;DHT22;3055;50.886;14.814;2022-09-12T07:54:15;18.70;99.90
6054;DHT22;3055;50.886;14.814;2022-09-12T07:56:43;18.60;1.00
6054;DHT22;3055;50.886;14.814;2022-09-12T07:59:10;18.40;99.90
6054;DHT22;3055;50.886;14.814;2022-09-12T08:01:37;18.30;99.90
6054;DHT22;3055;50.886;14.814;2022-09-12T08:04:06;18.20;99.90
6054;DHT22;3055;50.886;14.814;2022-09-12T08:06:33;18.20;27.80
6054;DHT22;3055;50.886;14.814;2022-09-12T08:09:03;18.10;1.00
6054;DHT22;3055;50.886;14.814;2022-09-12T08:11:32;18.10;99.90
6054;DHT22;3055;50.886;14.814;2022-09-12T08:13:59;18.30;99.90
6054;DHT22;3055;50.886;14.814;2022-09-12T08:16:29;18.40;1.00
6054;DHT22;3055;50.886;14.814;2022-09-12T08:18:57;18.60;99.90
6054;DHT22;3055;50.886;14.814;2022-09-12T08:21:26;18.70;1.00
6054;DHT22;3055;50.886;14.814;2022-09-12T08:23:55;18.70;1.00
6054;DHT22;3055;50.886;14.814;2022-09-12T08:26:22;18.70;1.00
6054;DHT22;3055;50.886;14.814;2022-09-12T08:28:51;18.70;99.90
6054;DHT22;3055;50.886;14.814;2022-09-12T08:31:20;18.80;1.00
6054;DHT22;3055;50.886;14.814;2022-09-12T08:33:47;18.70;1.00
6054;DHT22;3055;50.886;14.814;2022-09-12T08:36:16;18.60;1.00
6054;DHT22;3055;50.886;14.814;2022-09-12T08:38:45;18.70;1.00
6054;DHT22;3055;50.886;14.814;2022-09-12T08:41:20;18.80;1.00
6054;DHT22;3055;50.886;14.814;2022-09-12T08:44:11;18.80;1.00
6054;DHT22;3055;50.886;14.814;2022-09-12T08:46:49;18.90;1.00
6054;DHT22;3055;50.886;14.814;2022-09-12T08:49:25;19.00;99.90
6054;DHT22;3055;50.886;14.814;2022-09-12T08:51:54;19.20;1.00
6054;DHT22;3055;50.886;14.814;2022-09-12T08:54:26;19.40;1.00
6054;DHT22;3055;50.886;14.814;2022-09-12T08:56:58;19.60;1.00
6054;DHT22;3055;50.886;14.814;2022-09-12T08:59:32;19.80;1.00
6054;DHT22;3055;50.886;14.814;2022-09-12T09:02:01;20.00;1.00
6054;DHT22;3055;50.886;14.814;2022-09-12T09:04:39;20.20;99.90
6054;DHT22;3055;50.886;14.814;2022-09-12T09:07:28;20.40;99.90
6054;DHT22;3055;50.886;14.814;2022-09-12T09:10:10;20.40;99.90
6054;DHT22;3055;50.886;14.814;2022-09-12T09:12:48;20.80;99.90
6054;DHT22;3055;50.886;14.814;2022-09-12T09:15:32;21.10;99.90
6054;DHT22;3055;50.886;14.814;2022-09-12T09:18:07;21.00;99.90
6054;DHT22;3055;50.886;14.814;2022-09-12T09:20:40;20.80;95.70
6054;DHT22;3055;50.886;14.814;2022-09-12T09:23:13;20.70;99.90
6054;DHT22;3055;50.886;14.814;2022-09-12T09:25:46;20.90;99.90
6054;DHT22;3055;50.886;14.814;2022-09-12T09:28:19;20.70;92.50
6054;DHT22;3055;50.886;14.814;2022-09-12T09:30:49;20.60;90.60
6054;DHT22;3055;50.886;14.814;2022-09-12T09:33:20;20.50;77.70
6054;DHT22;3055;50.886;14.814;2022-09-12T09:35:53;20.60;84.90
6054;DHT22;3055;50.886;14.814;2022-09-12T09:38:33;20.80;85.80
6054;DHT22;3055;50.886;14.814;2022-09-12T09:41:18;21.00;59.70
6054;DHT22;3055;50.886;14.814;2022-09-12T09:43:48;21.00;60.20
6054;DHT22;3055;50.886;14.814;2022-09-12T09:46:16;20.60;44.40
6054;DHT22;3055;50.886;14.814;2022-09-12T09:48:45;20.40;30.70
6054;DHT22;3055;50.886;14.814;2022-09-12T09:51:16;20.10;40.00
6054;DHT22;3055;50.886;14.814;2022-09-12T09:53:47;19.90;46.30
6054;DHT22;3055;50.886;14.814;2022-09-12T09:56:26;19.70;71.90
6054;DHT22;3055;50.886;14.814;2022-09-12T09:58:53;19.50;82.40
6054;DHT22;3055;50.886;14.814;2022-09-12T10:01:22;19.30;92.90
6054;DHT22;3055;50.886;14.814;2022-09-12T10:03:51;19.00;99.90
6054;DHT22;3055;50.886;14.814;2022-09-12T10:06:25;18.80;99.90
6054;DHT22;3055;50.886;14.814;2022-09-12T10:09:05;18.70;99.90
6054;DHT22;3055;50.886;14.814;2022-09-12T10:11:33;18.50;99.90
6054;DHT22;3055;50.886;14.814;2022-09-12T10:14:01;18.40;99.90
6054;DHT22;3055;50.886;14.814;2022-09-12T10:16:31;18.30;99.90
6054;DHT22;3055;50.886;14.814;2022-09-12T10:19:00;18.30;99.90
6054;DHT22;3055;50.886;14.814;2022-09-12T10:21:30;18.30;99.90
6054;DHT22;3055;50.886;14.814;2022-09-12T10:24:14;18.40;99.90
6054;DHT22;3055;50.886;14.814;2022-09-12T10:26:45;18.50;99.90
6054;DHT22;3055;50.886;14.814;2022-09-12T10:29:16;18.60;99.90
6054;DHT22;3055;50.886;14.814;2022-09-12T10:31:49;18.50;99.90
6054;DHT22;3055;50.886;14.814;2022-09-12T10:34:26;18.40;99.90
6054;DHT22;3055;50.886;14.814;2022-09-12T10:37:00;18.40;99.90
6054;DHT22;3055;50.886;14.814;2022-09-12T10:39:28;18.50;99.90
6054;DHT22;3055;50.886;14.814;2022-09-12T10:41:59;18.60;99.90
6054;DHT22;3055;50.886;14.814;2022-09-12T10:44:27;18.70;99.90
6054;DHT22;3055;50.886;14.814;2022-09-12T10:46:58;18.90;99.90
6054;DHT22;3055;50.886;14.814;2022-09-12T10:49:28;19.20;99.90
6054;DHT22;3055;50.886;14.814;2022-09-12T10:51:57;19.40;99.90
6054;DHT22;3055;50.886;14.814;2022-09-12T10:54:40;19.50;99.90
6054;DHT22;3055;50.886;14.814;2022-09-12T10:57:33;19.70;99.90
6054;DHT22;3055;50.886;14.814;2022-09-12T11:00:08;19.70;99.90
6054;DHT22;3055;50.886;14.814;2022-09-12T11:02:49;19.70;99.90
6054;DHT22;3055;50.886;14.814;2022-09-12T11:05:27;20.00;99.90
6054;DHT22;3055;50.886;14.814;2022-09-12T11:08:17;20.10;99.90
6054;DHT22;3055;50.886;14.814;2022-09-12T11:10:54;20.30;99.90
6054;DHT22;3055;50.886;14.814;2022-09-12T11:13:31;20.40;99.90
6054;DHT22;3055;50.886;14.814;2022-09-12T11:16:14;20.40;99.90
6054;DHT22;3055;50.886;14.814;2022-09-12T11:18:57;20.20;91.10
6054;DHT22;3055;50.886;14.814;2022-09-12T11:21:46;19.70;78.00
6054;DHT22;3055;50.886;14.814;2022-09-12T11:24:28;19.20;88.50
6054;DHT22;3055;50.886;14.814;2022-09-12T11:27:08;19.00;89.20
6054;DHT22;3055;50.886;14.814;2022-09-12T11:29:47;18.80;99.90
6054;DHT22;3055;50.886;14.814;2022-09-12T11:35:24;18.50;99.90
6054;DHT22;3055;50.886;14.814;2022-09-12T11:38:10;18.40;99.90
6054;DHT22;3055;50.886;14.814;2022-09-12T11:40:43;18.40;99.90
6054;DHT22;3055;50.886;14.814;2022-09-12T11:43:21;18.30;99.90
6054;DHT22;3055;50.886;14.814;2022-09-12T11:45:50;18.40;99.90
6054;DHT22;3055;50.886;14.814;2022-09-12T11:48:28;18.70;99.90
6054;DHT22;3055;50.886;14.814;2022-09-12T11:51:02;19.10;99.90
6054;DHT22;3055;50.886;14.814;2022-09-12T11:53:34;19.40;99.90
6054;DHT22;3055;50.886;14.814;2022-09-12T11:56:07;19.50;99.90
6054;DHT22;3055;50.886;14.814;2022-09-12T11:58:36;19.70;99.90
6054;DHT22;3055;50.886;14.814;2022-09-12T12:01:10;19.80;99.90
6054;DHT22;3055;50.886;14.814;2022-09-12T12:03:40;19.90;99.30
6054;DHT22;3055;50.886;14.814;2022-09-12T12:06:15;20.00;99.90
6054;DHT22;3055;50.886;14.814;2022-09-12T12:08:44;20.00;98.70
6054;DHT22;3055;50.886;14.814;2022-09-12T12:11:12;19.80;77.60
6054;DHT22;3055;50.886;14.814;2022-09-12T12:13:45;19.80;90.20
6054;DHT22;3055;50.886;14.814;2022-09-12T12:16:16;19.70;89.80
6054;DHT22;3055;50.886;14.814;2022-09-12T12:18:52;19.60;93.60
6054;DHT22;3055;50.886;14.814;2022-09-12T12:21:35;19.50;90.40
6054;DHT22;3055;50.886;14.814;2022-09-12T12:24:25;19.60;92.10
6054;DHT22;3055;50.886;14.814;2022-09-12T12:26:55;19.70;85.00
6054;DHT22;3055;50.886;14.814;2022-09-12T12:29:42;19.70;67.90
6054;DHT22;3055;50.886;14.814;2022-09-12T12:32:23;19.70;74.60
6054;DHT22;3055;50.886;14.814;2022-09-12T12:37:55;20.10;70.20
6054;DHT22;3055;50.886;14.814;2022-09-12T12:40:26;20.50;68.20
6054;DHT22;3055;50.886;14.814;2022-09-12T12:42:59;20.70;46.60
6054;DHT22;3055;50.886;14.814;2022-09-12T12:51:55;22.30;1.00
6054;DHT22;3055;50.886;14.814;2022-09-12T12:57:32;22.90;1.00
6054;DHT22;3055;50.886;14.814;2022-09-12T13:00:04;22.80;1.00
6054;DHT22;3055;50.886;14.814;2022-09-12T13:02:35;22.90;1.00
6054;DHT22;3055;50.886;14.814;2022-09-12T13:05:06;23.00;1.00
6054;DHT22;3055;50.886;14.814;2022-09-12T13:07:42;23.20;1.00
6054;DHT22;3055;50.886;14.814;2022-09-12T13:10:21;23.30;1.00
6054;DHT22;3055;50.886;14.814;2022-09-12T13:12:50;23.50;1.00
6054;DHT22;3055;50.886;14.814;2022-09-12T13:15:45;23.60;1.00
6054;DHT22;3055;50.886;14.814;2022-09-12T13:18:16;23.80;1.00
6054;DHT22;3055;50.886;14.814;2022-09-12T13:20:47;24.00;1.00
6054;DHT22;3055;50.886;14.814;2022-09-12T13:23:22;24.20;1.00
6054;DHT22;3055;50.886;14.814;2022-09-12T13:25:56;24.50;1.00
6054;DHT22;3055;50.886;14.814;2022-09-12T13:28:23;24.60;1.00
6054;DHT22;3055;50.886;14.814;2022-09-12T13:30:58;24.60;1.00
6054;DHT22;3055;50.886;14.814;2022-09-12T13:33:32;24.80;1.00
6054;DHT22;3055;50.886;14.814;2022-09-12T13:36:15;25.20;1.00
6054;DHT22;3055;50.886;14.814;2022-09-12T13:38:53;25.40;1.00
6054;DHT22;3055;50.886;14.814;2022-09-12T13:41:35;25.30;1.00
6054;DHT22;3055;50.886;14.814;2022-09-12T13:44:08;25.20;1.00
6054;DHT22;3055;50.886;14.814;2022-09-12T13:46:36;25.30;1.00
6054;DHT22;3055;50.886;14.814;2022-09-12T13:49:14;25.60;1.00
6054;DHT22;3055;50.886;14.814;2022-09-12T13:51:44;25.70;1.00
6054;DHT22;3055;50.886;14.814;2022-09-12T13:54:16;25.90;1.00
6054;DHT22;3055;50.886;14.814;2022-09-12T13:56:48;25.70;1.00
6054;DHT22;3055;50.886;14.814;2022-09-12T13:59:15;25.60;1.00
6054;DHT22;3055;50.886;14.814;2022-09-12T14:01:44;25.60;1.00
6054;DHT22;3055;50.886;14.814;2022-09-12T14:04:16;25.90;1.00
6054;DHT22;3055;50.886;14.814;2022-09-12T14:07:06;26.20;1.00
6054;DHT22;3055;50.886;14.814;2022-09-12T14:09:38;26.30;1.00
6054;DHT22;3055;50.886;14.814;2022-09-12T14:12:14;26.40;1.00
6054;DHT22;3055;50.886;14.814;2022-09-12T14:14:47;26.90;1.00
6054;DHT22;3055;50.886;14.814;2022-09-12T14:17:16;26.80;1.00
6054;DHT22;3055;50.886;14.814;2022-09-12T14:19:47;26.30;1.00
6054;DHT22;3055;50.886;14.814;2022-09-12T14:22:14;26.40;1.00
6054;DHT22;3055;50.886;14.814;2022-09-12T14:24:43;26.10;1.00
6054;DHT22;3055;50.886;14.814;2022-09-12T14:27:18;26.20;1.00
6054;DHT22;3055;50.886;14.814;2022-09-12T14:29:46;26.30;1.00
6054;DHT22;3055;50.886;14.814;2022-09-12T14:32:22;26.30;1.00
6054;DHT22;3055;50.886;14.814;2022-09-12T14:35:20;26.80;1.00
6054;DHT22;3055;50.886;14.814;2022-09-12T14:37:49;27.00;1.00
6054;DHT22;3055;50.886;14.814;2022-09-12T14:40:19;27.40;1.00
6054;DHT22;3055;50.886;14.814;2022-09-12T14:42:49;27.90;1.00
6054;DHT22;3055;50.886;14.814;2022-09-12T14:45:23;28.20;1.00
6054;DHT22;3055;50.886;14.814;2022-09-12T14:47:51;28.00;1.00
6054;DHT22;3055;50.886;14.814;2022-09-12T14:50:21;27.90;1.00
6054;DHT22;3055;50.886;14.814;2022-09-12T14:53:03;27.60;1.00
6054;DHT22;3055;50.886;14.814;2022-09-12T14:55:32;27.40;1.00
6054;DHT22;3055;50.886;14.814;2022-09-12T14:58:22;27.10;1.00
6054;DHT22;3055;50.886;14.814;2022-09-12T15:00:56;27.40;1.00
6054;DHT22;3055;50.886;14.814;2022-09-12T15:03:26;27.70;1.00
6054;DHT22;3055;50.886;14.814;2022-09-12T15:05:53;27.50;1.00
6054;DHT22;3055;50.886;14.814;2022-09-12T15:08:20;27.40;1.00
6054;DHT22;3055;50.886;14.814;2022-09-12T15:10:47;27.30;1.00
6054;DHT22;3055;50.886;14.814;2022-09-12T15:13:19;27.40;1.00
6054;DHT22;3055;50.886;14.814;2022-09-12T15:15:47;27.30;1.00
6054;DHT22;3055;50.886;14.814;2022-09-12T15:18:14;27.20;1.00
6054;DHT22;3055;50.886;14.814;2022-09-12T15:20:44;27.00;1.00
6054;DHT22;3055;50.886;14.814;2022-09-12T15:23:16;26.80;1.00
6054;DHT22;3055;50.886;14.814;2022-09-12T15:25:44;26.70;1.00
6054;DHT22;3055;50.886;14.814;2022-09-12T15:28:17;26.70;1.00
6054;DHT22;3055;50.886;14.814;2022-09-12T15:30:46;26.60;1.00
6054;DHT22;3055;50.886;14.814;2022-09-12T15:33:14;26.40;1.00
6054;DHT22;3055;50.886;14.814;2022-09-12T15:35:41;26.20;1.00
6054;DHT22;3055;50.886;14.814;2022-09-12T15:38:08;25.50;1.00
6054;DHT22;3055;50.886;14.814;2022-09-12T15:40:35;24.70;1.00
6054;DHT22;3055;50.886;14.814;2022-09-12T15:43:02;24.10;1.00
6054;DHT22;3055;50.886;14.814;2022-09-12T15:45:32;23.90;1.00
6054;DHT22;3055;50.886;14.814;2022-09-12T15:48:00;23.50;1.00
6054;DHT22;3055;50.886;14.814;2022-09-12T15:50:28;23.20;1.00
6054;DHT22;3055;50.886;14.814;2022-09-12T15:52:55;22.80;1.00
6054;DHT22;3055;50.886;14.814;2022-09-12T15:55:24;22.40;1.00
6054;DHT22;3055;50.886;14.814;2022-09-12T15:57:51;22.10;1.00
6054;DHT22;3055;50.886;14.814;2022-09-12T16:00:19;21.80;1.00
6054;DHT22;3055;50.886;14.814;2022-09-12T16:02:49;21.60;1.00
6054;DHT22;3055;50.886;14.814;2022-09-12T16:05:19;21.40;1.00
6054;DHT22;3055;50.886;14.814;2022-09-12T16:07:48;21.30;1.00
6054;DHT22;3055;50.886;14.814;2022-09-12T16:10:17;21.10;1.00
6054;DHT22;3055;50.886;14.814;2022-09-12T16:12:44;20.80;1.00
6054;DHT22;3055;50.886;14.814;2022-09-12T16:15:13;20.60;1.00
6054;DHT22;3055;50.886;14.814;2022-09-12T16:17:40;20.40;1.00
6054;DHT22;3055;50.886;14.814;2022-09-12T16:20:09;20.20;1.00
6054;DHT22;3055;50.886;14.814;2022-09-12T16:22:36;20.10;1.00
6054;DHT22;3055;50.886;14.814;2022-09-12T16:25:04;19.90;1.00
6054;DHT22;3055;50.886;14.814;2022-09-12T16:27:32;19.70;1.00
6054;DHT22;3055;50.886;14.814;2022-09-12T16:29:59;19.50;1.00
6054;DHT22;3055;50.886;14.814;2022-09-12T16:32:26;19.30;1.00
6054;DHT22;3055;50.886;14.814;2022-09-12T16:34:53;19.20;1.00
6054;DHT22;3055;50.886;14.814;2022-09-12T16:37:21;19.10;1.00
6054;DHT22;3055;50.886;14.814;2022-09-12T16:39:48;18.90;1.00